Time;durP1;ratioP1;P1;durP2;ratioP2;P2;SDS_P1;SDS_P2;PMS_P1;PMS_P2;Temp;Humidity;BMP_temperature;BMP_pressure;BME280_temperature;BME280_humidity;BME280_pressure;Samples;Min_cycle;Max_cycle;Signal;HPM_P1;HPM_P2
2023/04/27 00:01:14;;;;;;;9.73;5.93;;;4.70;99.90;;;;;;5040279;28;20054;-86
2023/04/27 00:03:41;;;;;;;9.90;5.93;;;4.80;99.90;;;;;;5072917;28;20477;-86
2023/04/27 00:06:08;;;;;;;11.15;6.28;;;4.80;99.90;;;;;;5073244;28;20063;-86
2023/04/27 00:08:34;;;;;;;10.45;5.55;;;4.70;99.90;;;;;;5072134;28;20059;-86
2023/04/27 00:11:00;;;;;;;9.57;5.90;;;4.70;99.90;;;;;;5073231;28;20424;-86
2023/04/27 00:13:26;;;;;;;8.50;5.60;;;4.70;99.90;;;;;;5056240;28;20512;-85
2023/04/27 00:15:52;;;;;;;10.18;5.60;;;4.70;99.90;;;;;;5056012;28;20571;-86
2023/04/27 00:18:18;;;;;;;9.73;5.83;;;4.70;99.90;;;;;;5072999;28;20242;-86
2023/04/27 00:20:44;;;;;;;10.52;5.78;;;4.70;99.90;;;;;;5072641;28;20143;-86
2023/04/27 00:23:09;;;;;;;9.10;5.73;;;4.50;99.90;;;;;;5073046;28;20131;-86
2023/04/27 00:25:36;;;;;;;8.30;5.17;;;4.60;99.90;;;;;;5073734;28;20102;-86
2023/04/27 00:28:01;;;;;;;10.18;5.72;;;4.50;99.90;;;;;;5072915;28;20045;-86
2023/04/27 00:30:27;;;;;;;12.43;6.00;;;4.50;99.90;;;;;;5072682;28;20106;-86
2023/04/27 00:32:53;;;;;;;10.33;6.30;;;4.60;99.90;;;;;;5072919;28;20489;-86
2023/04/27 00:35:19;;;;;;;9.80;6.53;;;4.50;99.90;;;;;;5072400;28;20171;-86
2023/04/27 00:37:45;;;;;;;10.52;6.07;;;4.50;99.90;;;;;;5072786;28;20088;-85
2023/04/27 00:40:11;;;;;;;12.43;6.43;;;4.50;99.90;;;;;;5072467;28;20087;-86
2023/04/27 00:42:37;;;;;;;11.07;6.07;;;4.50;99.90;;;;;;5055644;28;20055;-86
2023/04/27 00:45:04;;;;;;;11.35;6.55;;;4.60;99.90;;;;;;5073822;28;20101;-86
2023/04/27 00:47:32;;;;;;;12.80;6.63;;;4.50;99.90;;;;;;5073415;28;20064;-86
2023/04/27 00:49:58;;;;;;;13.40;7.03;;;4.40;99.90;;;;;;5055921;28;20048;-86
2023/04/27 00:52:24;;;;;;;10.63;7.45;;;4.40;99.90;;;;;;5055679;28;20051;-85
2023/04/27 00:54:51;;;;;;;10.55;6.82;;;4.40;99.90;;;;;;5072695;28;20052;-85
2023/04/27 00:57:17;;;;;;;15.57;7.70;;;4.30;99.90;;;;;;5073372;28;20059;-86
2023/04/27 00:59:43;;;;;;;10.10;6.40;;;4.30;99.90;;;;;;5073036;28;20047;-86
2023/04/27 01:02:11;;;;;;;14.00;6.97;;;4.30;99.90;;;;;;5072052;28;20045;-86
2023/04/27 01:04:36;;;;;;;11.38;6.63;;;4.20;99.90;;;;;;5072076;28;20052;-86
2023/04/27 01:07:02;;;;;;;10.77;6.43;;;4.20;99.90;;;;;;5072030;28;20040;-86
2023/04/27 01:09:28;;;;;;;11.73;6.88;;;4.20;99.90;;;;;;5072026;28;20048;-86
2023/04/27 01:11:54;;;;;;;10.63;6.37;;;4.20;99.90;;;;;;5073151;28;20083;-86
2023/04/27 01:14:20;;;;;;;10.10;5.78;;;4.20;99.90;;;;;;5055425;28;20510;-86
2023/04/27 01:16:46;;;;;;;11.10;6.23;;;4.20;99.90;;;;;;5071377;28;20049;-86
2023/04/27 01:19:12;;;;;;;8.77;5.80;;;4.20;99.90;;;;;;5071670;28;20484;-85
2023/04/27 01:21:38;;;;;;;10.07;5.93;;;4.20;99.90;;;;;;5071688;28;20119;-86
2023/04/27 01:24:07;;;;;;;10.77;6.57;;;4.30;99.90;;;;;;5071977;28;20054;-86
2023/04/27 01:26:33;;;;;;;7.82;5.50;;;4.20;99.90;;;;;;5071557;28;20056;-86
2023/04/27 01:28:59;;;;;;;11.40;6.80;;;4.10;99.90;;;;;;5072904;28;20041;-86
2023/04/27 01:31:25;;;;;;;9.27;5.53;;;4.10;99.90;;;;;;5071563;28;20055;-86
2023/04/27 01:33:51;;;;;;;9.90;5.63;;;4.20;99.90;;;;;;5055129;28;20290;-86
2023/04/27 01:36:16;;;;;;;8.40;5.70;;;4.10;99.90;;;;;;5071620;28;20488;-85
2023/04/27 01:38:43;;;;;;;9.67;6.07;;;4.00;99.90;;;;;;5071704;28;20060;-86
2023/04/27 01:41:08;;;;;;;10.60;6.00;;;4.00;99.90;;;;;;5073090;28;20044;-85
2023/04/27 01:43:38;;;;;;;8.90;5.63;;;4.00;99.90;;;;;;5056087;28;20044;-86
2023/04/27 01:46:05;;;;;;;10.95;6.43;;;4.00;99.90;;;;;;5071638;28;20143;-86
2023/04/27 01:48:31;;;;;;;11.70;5.45;;;4.00;99.90;;;;;;5071543;28;20393;-86
2023/04/27 01:50:56;;;;;;;11.10;6.10;;;4.00;99.90;;;;;;5071718;28;20047;-86
2023/04/27 01:53:22;;;;;;;10.07;6.27;;;4.00;99.90;;;;;;5071391;28;20048;-85
2023/04/27 01:55:48;;;;;;;14.97;5.47;;;4.10;99.90;;;;;;5071082;28;20051;-85
2023/04/27 01:58:13;;;;;;;10.30;6.17;;;4.10;99.90;;;;;;5071409;28;20396;-85
2023/04/27 02:00:39;;;;;;;11.03;5.73;;;4.20;99.90;;;;;;5071051;28;20051;-85
2023/04/27 02:03:05;;;;;;;8.23;5.77;;;4.20;99.90;;;;;;5071678;28;20435;-85
2023/04/27 02:05:31;;;;;;;8.40;5.50;;;4.30;99.90;;;;;;5072144;28;20049;-84
2023/04/27 02:07:56;;;;;;;10.50;5.80;;;4.30;99.90;;;;;;5071494;28;20074;-86
2023/04/27 02:10:22;;;;;;;10.47;5.87;;;4.30;99.90;;;;;;5071604;28;20055;-86
2023/04/27 02:12:48;;;;;;;8.33;5.13;;;4.30;99.90;;;;;;5071143;28;20083;-86
2023/04/27 02:15:13;;;;;;;9.07;5.53;;;4.30;99.90;;;;;;5071060;28;20045;-86
2023/04/27 02:17:39;;;;;;;9.93;6.27;;;4.30;99.90;;;;;;5072318;28;20052;-86
2023/04/27 02:20:06;;;;;;;13.73;6.32;;;4.30;99.90;;;;;;5071041;28;20052;-87
2023/04/27 02:22:32;;;;;;;8.52;5.65;;;4.40;99.90;;;;;;5072178;28;20055;-85
2023/04/27 02:24:59;;;;;;;8.33;5.77;;;4.30;99.90;;;;;;5072204;28;20400;-86
2023/04/27 02:27:24;;;;;;;13.13;6.30;;;4.30;99.90;;;;;;5054523;28;20298;-86
2023/04/27 02:29:50;;;;;;;10.23;6.67;;;4.30;99.90;;;;;;5071893;28;20170;-86
2023/04/27 02:32:16;;;;;;;13.43;6.90;;;4.40;99.90;;;;;;5056841;28;20044;-86
2023/04/27 02:34:42;;;;;;;10.87;6.43;;;4.40;99.90;;;;;;5074688;28;20041;-86
2023/04/27 02:37:07;;;;;;;11.00;6.60;;;4.40;99.90;;;;;;5074983;28;20083;-87
2023/04/27 02:39:33;;;;;;;12.17;6.37;;;4.40;99.90;;;;;;5075052;28;20044;-86
2023/04/27 02:42:00;;;;;;;10.27;6.77;;;4.30;99.90;;;;;;5074988;28;20133;-87
2023/04/27 02:44:25;;;;;;;10.63;6.28;;;4.40;99.90;;;;;;5074752;28;20052;-86
2023/04/27 02:46:51;;;;;;;14.77;5.60;;;4.40;99.90;;;;;;5074823;28;20064;-87
2023/04/27 02:49:17;;;;;;;9.87;6.63;;;4.40;99.90;;;;;;5074703;28;20113;-87
2023/04/27 02:51:43;;;;;;;13.10;6.30;;;4.40;99.90;;;;;;5075482;28;20322;-86
2023/04/27 02:54:09;;;;;;;10.40;5.90;;;4.40;99.90;;;;;;5074891;28;20052;-86
2023/04/27 02:56:34;;;;;;;9.17;6.00;;;4.40;99.90;;;;;;5074274;28;20036;-86
2023/04/27 02:59:00;;;;;;;10.60;6.87;;;4.50;99.90;;;;;;5074517;28;20048;-87
2023/04/27 03:01:26;;;;;;;11.03;6.23;;;4.40;99.90;;;;;;5075732;28;20101;-87
2023/04/27 03:03:51;;;;;;;11.37;6.50;;;4.50;99.90;;;;;;5057829;28;20040;-87
2023/04/27 03:06:17;;;;;;;11.07;6.50;;;4.40;99.90;;;;;;5074485;28;20518;-87
2023/04/27 03:08:43;;;;;;;11.67;6.03;;;4.40;99.90;;;;;;5074254;28;20074;-86
2023/04/27 03:11:08;;;;;;;8.90;5.80;;;4.40;99.90;;;;;;5074249;28;20067;-87
2023/04/27 03:13:40;;;;;;;8.93;6.13;;;4.40;99.90;;;;;;5074231;28;20044;-87
2023/04/27 03:16:15;;;;;;;8.95;5.88;;;4.40;99.90;;;;;;5075486;28;20056;-87
2023/04/27 03:18:41;;;;;;;11.48;6.53;;;4.30;99.90;;;;;;5074073;28;20044;-86
2023/04/27 03:21:11;;;;;;;11.33;6.03;;;4.30;99.90;;;;;;5075075;28;20063;-86
2023/04/27 03:23:37;;;;;;;9.95;5.80;;;4.30;99.90;;;;;;5075345;28;20041;-86
2023/04/27 03:26:07;;;;;;;10.75;5.63;;;4.40;99.90;;;;;;5073839;28;20051;-86
2023/04/27 03:28:33;;;;;;;9.07;5.15;;;4.50;99.90;;;;;;5074335;28;20071;-86
2023/04/27 03:31:00;;;;;;;12.00;6.20;;;4.50;99.90;;;;;;5073964;28;20044;-86
2023/04/27 03:33:27;;;;;;;9.63;5.97;;;4.40;99.90;;;;;;5057749;28;20050;-87
2023/04/27 03:35:56;;;;;;;8.27;5.38;;;4.40;99.90;;;;;;5056864;28;20127;-86
2023/04/27 03:38:23;;;;;;;10.52;5.53;;;4.40;99.90;;;;;;5075061;28;20411;-87
2023/04/27 03:40:48;;;;;;;10.32;6.03;;;4.40;99.90;;;;;;5056984;28;20044;-86
2023/04/27 03:43:14;;;;;;;10.17;6.17;;;4.40;99.90;;;;;;5073987;28;20098;-87
2023/04/27 03:45:40;;;;;;;8.70;5.50;;;4.30;99.90;;;;;;5073827;28;20045;-86
2023/04/27 03:48:05;;;;;;;10.00;5.83;;;4.20;99.90;;;;;;5073443;28;20460;-87
2023/04/27 03:50:31;;;;;;;9.13;5.80;;;4.20;99.90;;;;;;5057159;28;20040;-87
2023/04/27 03:52:57;;;;;;;9.30;5.40;;;4.20;99.90;;;;;;5074363;28;20055;-87
2023/04/27 03:55:22;;;;;;;9.90;5.93;;;4.10;99.90;;;;;;5074443;28;20492;-87
2023/04/27 03:57:48;;;;;;;8.73;5.80;;;4.10;99.90;;;;;;5056982;28;20086;-87
2023/04/27 04:00:14;;;;;;;9.77;6.27;;;4.10;99.90;;;;;;5073706;28;20401;-87
2023/04/27 04:02:40;;;;;;;10.85;6.28;;;4.10;99.90;;;;;;5074456;28;20048;-87
2023/04/27 04:05:07;;;;;;;9.70;5.97;;;4.00;99.90;;;;;;5073142;28;20458;-86
2023/04/27 04:07:33;;;;;;;10.85;6.00;;;4.00;99.90;;;;;;5074274;28;20088;-86
2023/04/27 04:09:59;;;;;;;10.13;5.88;;;3.90;99.90;;;;;;5073830;28;20041;-87
2023/04/27 04:12:25;;;;;;;9.97;5.97;;;3.90;99.90;;;;;;5056813;28;20421;-86
2023/04/27 04:14:51;;;;;;;10.03;6.10;;;3.90;99.90;;;;;;5074111;28;20431;-86
2023/04/27 04:17:16;;;;;;;10.73;6.17;;;3.80;99.90;;;;;;5073367;28;20048;-86
2023/04/27 04:19:42;;;;;;;10.47;5.93;;;3.80;99.90;;;;;;5074071;28;20074;-86
2023/04/27 04:22:08;;;;;;;9.90;5.60;;;3.80;99.90;;;;;;5073768;28;20048;-87
2023/04/27 04:24:33;;;;;;;12.17;7.23;;;3.80;99.90;;;;;;5073962;28;20052;-87
2023/04/27 04:26:59;;;;;;;10.03;5.80;;;3.80;99.90;;;;;;5072861;28;20384;-87
2023/04/27 04:29:26;;;;;;;10.30;5.97;;;3.80;99.90;;;;;;5074256;28;20080;-87
2023/04/27 04:31:51;;;;;;;8.02;5.53;;;3.80;99.90;;;;;;5073928;28;20064;-86
2023/04/27 04:34:18;;;;;;;9.50;6.43;;;3.70;99.90;;;;;;5072916;28;20052;-86
2023/04/27 04:36:44;;;;;;;9.90;5.63;;;3.70;99.90;;;;;;5073698;28;20095;-87
2023/04/27 04:39:11;;;;;;;8.97;5.43;;;3.70;99.90;;;;;;5072204;28;20080;-86
2023/04/27 04:41:37;;;;;;;11.25;5.78;;;3.70;99.90;;;;;;5073700;28;20048;-87
2023/04/27 04:44:03;;;;;;;11.37;5.40;;;3.70;99.90;;;;;;5072468;28;20127;-87
2023/04/27 04:46:29;;;;;;;11.60;5.32;;;3.70;99.90;;;;;;5072928;28;20481;-86
2023/04/27 04:48:55;;;;;;;12.90;6.30;;;3.70;99.90;;;;;;5072063;28;20041;-87
2023/04/27 04:51:21;;;;;;;9.07;5.30;;;3.80;99.90;;;;;;5072601;28;20055;-87
2023/04/27 04:53:46;;;;;;;10.10;5.10;;;3.70;99.90;;;;;;5073084;28;20089;-86
2023/04/27 04:56:13;;;;;;;9.23;5.10;;;3.80;99.90;;;;;;5073013;28;20040;-86
2023/04/27 04:58:39;;;;;;;9.38;5.05;;;3.80;99.90;;;;;;5072528;28;20041;-86
2023/04/27 05:01:05;;;;;;;11.13;5.97;;;3.90;99.90;;;;;;5073051;28;20484;-86
2023/04/27 05:03:31;;;;;;;9.68;5.07;;;3.90;99.90;;;;;;5073408;28;20048;-86
2023/04/27 05:05:57;;;;;;;9.18;5.32;;;3.90;99.90;;;;;;5072938;28;20045;-87
2023/04/27 05:08:23;;;;;;;9.07;5.03;;;3.80;99.90;;;;;;5072129;28;20123;-87
2023/04/27 05:10:53;;;;;;;8.10;5.40;;;3.90;99.90;;;;;;5072066;28;20484;-88
2023/04/27 05:13:19;;;;;;;10.43;5.20;;;3.90;99.90;;;;;;5073275;28;20048;-86
2023/04/27 05:15:45;;;;;;;8.10;4.72;;;4.00;99.90;;;;;;5071748;28;20481;-86
2023/04/27 05:18:11;;;;;;;7.90;5.27;;;4.00;99.90;;;;;;5071711;28;20118;-87
2023/04/27 05:20:37;;;;;;;10.00;5.03;;;4.00;99.90;;;;;;5055124;28;20313;-86
2023/04/27 05:23:04;;;;;;;7.55;4.80;;;4.10;99.90;;;;;;5071414;28;20087;-88
2023/04/27 05:25:33;;;;;;;7.20;4.88;;;4.10;99.90;;;;;;5073055;28;20480;-87
2023/04/27 05:27:59;;;;;;;9.57;4.90;;;4.10;99.90;;;;;;5055039;28;20052;-87
2023/04/27 05:30:26;;;;;;;8.60;5.27;;;4.20;99.90;;;;;;5055366;28;20098;-87
2023/04/27 05:32:51;;;;;;;10.73;5.47;;;4.20;99.90;;;;;;5055376;28;20052;-87
2023/04/27 05:35:17;;;;;;;8.80;5.80;;;4.30;99.90;;;;;;5072441;28;20043;-87
2023/04/27 05:37:43;;;;;;;9.40;5.60;;;4.40;99.90;;;;;;5055082;28;20052;-86
2023/04/27 05:40:09;;;;;;;7.87;5.10;;;4.40;99.90;;;;;;5072513;28;20048;-86
2023/04/27 05:42:35;;;;;;;8.70;4.75;;;4.50;99.90;;;;;;5071777;28;20534;-86
2023/04/27 05:45:02;;;;;;;9.83;5.17;;;4.60;99.90;;;;;;5072502;28;20048;-86
2023/04/27 05:47:28;;;;;;;10.50;5.13;;;4.80;99.90;;;;;;5071655;28;20344;-86
2023/04/27 05:49:54;;;;;;;6.67;4.30;;;5.10;99.90;;;;;;5072461;28;20052;-86
2023/04/27 05:52:20;;;;;;;6.70;4.20;;;6.20;99.90;;;;;;5070656;28;20110;-84
2023/04/27 05:54:49;;;;;;;7.43;4.18;;;7.50;99.90;;;;;;5070400;28;20329;-83
2023/04/27 05:57:16;;;;;;;9.50;4.90;;;8.80;99.90;;;;;;5070253;28;20047;-85
2023/04/27 05:59:42;;;;;;;6.63;3.80;;;9.90;99.90;;;;;;5072138;28;20086;-84
2023/04/27 06:02:08;;;;;;;5.65;3.40;;;10.90;99.90;;;;;;5072258;28;20044;-86
2023/04/27 06:04:35;;;;;;;7.97;3.80;;;11.80;99.90;;;;;;5071312;28;20420;-87
2023/04/27 06:07:03;;;;;;;7.70;3.33;;;12.70;99.90;;;;;;5073306;28;20774;-87
2023/04/27 06:09:32;;;;;;;4.67;2.57;;;13.40;99.90;;;;;;5076010;28;20287;-83
2023/04/27 06:11:58;;;;;;;7.47;2.87;;;14.10;97.40;;;;;;5075365;28;20291;-84
2023/04/27 06:14:24;;;;;;;7.50;2.77;;;14.70;99.90;;;;;;5076574;28;20282;-84
2023/04/27 06:16:50;;;;;;;6.27;3.03;;;15.30;95.60;;;;;;5075266;28;20310;-85
2023/04/27 06:19:15;;;;;;;5.67;2.67;;;15.60;89.30;;;;;;5075853;28;20075;-85
2023/04/27 06:21:41;;;;;;;6.90;2.93;;;15.90;84.60;;;;;;5076240;28;20505;-85
2023/04/27 06:24:07;;;;;;;4.93;2.77;;;16.40;80.20;;;;;;5076187;28;20091;-82
2023/04/27 06:26:33;;;;;;;9.03;2.93;;;16.80;74.00;;;;;;5076563;28;20051;-84
2023/04/27 06:28:58;;;;;;;5.83;2.50;;;17.20;68.10;;;;;;5075351;28;20500;-86
2023/04/27 06:31:25;;;;;;;6.93;2.60;;;17.70;62.30;;;;;;5074707;28;20102;-84
2023/04/27 06:33:51;;;;;;;7.17;3.00;;;18.00;60.30;;;;;;5074298;28;20040;-85
2023/04/27 06:36:17;;;;;;;5.30;2.70;;;18.20;58.20;;;;;;5072672;28;20357;-84
2023/04/27 06:38:42;;;;;;;5.37;2.67;;;18.40;55.30;;;;;;5058060;28;20044;-83
2023/04/27 06:41:08;;;;;;;6.80;2.70;;;18.80;55.30;;;;;;5075363;28;20059;-86
2023/04/27 06:43:34;;;;;;;5.70;2.90;;;19.00;52.40;;;;;;5074499;28;20094;-85
2023/04/27 06:46:00;;;;;;;6.30;2.43;;;19.50;52.30;;;;;;5074473;28;20462;-84
2023/04/27 06:48:25;;;;;;;5.60;2.77;;;19.60;50.90;;;;;;5075124;28;20044;-86
2023/04/27 06:50:51;;;;;;;4.70;2.50;;;20.00;50.70;;;;;;5057169;28;20040;-85
2023/04/27 06:53:17;;;;;;;8.13;3.20;;;20.10;50.00;;;;;;5074907;28;20040;-84
2023/04/27 06:55:42;;;;;;;5.33;2.43;;;20.60;49.10;;;;;;5075212;28;20044;-84
2023/04/27 06:58:08;;;;;;;5.53;2.57;;;20.90;48.80;;;;;;5074430;28;20448;-82
2023/04/27 07:00:34;;;;;;;5.93;2.67;;;21.10;47.70;;;;;;5075608;28;20059;-84
2023/04/27 07:03:00;;;;;;;6.43;2.77;;;21.40;47.00;;;;;;5075369;28;20041;-85
2023/04/27 07:05:26;;;;;;;6.27;3.07;;;21.70;46.30;;;;;;5074215;28;20036;-81
2023/04/27 07:07:52;;;;;;;6.60;2.70;;;22.10;45.40;;;;;;5074627;28;20476;-86
2023/04/27 07:10:17;;;;;;;6.83;2.37;;;22.30;44.80;;;;;;5075393;28;20138;-85
2023/04/27 07:12:43;;;;;;;5.80;2.60;;;22.50;43.60;;;;;;5075619;28;20058;-84
2023/04/27 07:15:09;;;;;;;4.30;2.30;;;22.70;43.30;;;;;;5075133;28;20041;-83
2023/04/27 07:17:35;;;;;;;7.73;2.80;;;23.00;42.90;;;;;;5073613;28;20105;-85
2023/04/27 07:20:03;;;;;;;4.30;2.43;;;23.10;42.00;;;;;;5074843;28;20151;-86
2023/04/27 07:22:29;;;;;;;7.17;2.70;;;23.20;41.50;;;;;;5073435;28;20048;-84
2023/04/27 07:24:54;;;;;;;5.50;2.40;;;23.30;41.60;;;;;;5074808;28;20044;-81
2023/04/27 07:27:21;;;;;;;5.93;1.90;;;23.30;40.80;;;;;;5074738;28;20500;-85
2023/04/27 07:29:47;;;;;;;4.17;2.10;;;23.60;40.80;;;;;;5073856;28;20048;-82
2023/04/27 07:32:13;;;;;;;7.50;2.50;;;23.90;40.50;;;;;;5074321;28;20044;-82
2023/04/27 07:34:39;;;;;;;4.40;2.00;;;23.70;40.00;;;;;;5074760;28;20431;-79
2023/04/27 07:37:06;;;;;;;5.03;2.30;;;23.90;39.80;;;;;;5074627;28;20044;-82
2023/04/27 07:39:32;;;;;;;3.50;1.80;;;24.10;38.80;;;;;;5074543;28;20127;-78
2023/04/27 07:41:58;;;;;;;5.47;2.03;;;24.20;38.00;;;;;;5073174;28;20136;-82
2023/04/27 07:44:24;;;;;;;5.70;1.90;;;24.00;37.50;;;;;;5074030;28;20098;-79
2023/04/27 07:46:53;;;;;;;5.73;2.10;;;24.20;37.90;;;;;;5074208;28;20404;-82
2023/04/27 07:49:19;;;;;;;3.20;1.77;;;24.10;37.70;;;;;;5074224;28;20404;-83
2023/04/27 07:51:45;;;;;;;6.20;2.00;;;24.10;37.70;;;;;;5074374;28;20058;-84
2023/04/27 07:54:11;;;;;;;4.33;1.80;;;24.10;37.50;;;;;;5074068;28;20053;-86
2023/04/27 07:56:39;;;;;;;4.97;1.70;;;24.10;37.30;;;;;;5073536;28;20044;-85
2023/04/27 07:59:05;;;;;;;4.73;1.80;;;24.20;37.00;;;;;;5073519;28;20036;-82
2023/04/27 08:01:30;;;;;;;4.00;1.80;;;24.10;36.80;;;;;;5073711;28;20049;-83
2023/04/27 08:03:56;;;;;;;5.50;2.03;;;23.30;36.80;;;;;;5073319;28;20040;-78
2023/04/27 08:06:22;;;;;;;6.43;1.90;;;22.50;37.60;;;;;;5072797;28;20083;-81
2023/04/27 08:08:47;;;;;;;4.10;2.03;;;21.50;38.10;;;;;;5074281;28;20489;-83
2023/04/27 08:11:13;;;;;;;5.67;2.00;;;20.70;38.60;;;;;;5073217;28;20048;-82
2023/04/27 08:13:39;;;;;;;4.80;2.30;;;20.00;38.90;;;;;;5074282;28;20048;-85
2023/04/27 08:16:05;;;;;;;5.20;2.37;;;19.50;39.60;;;;;;5074108;28;20049;-83
2023/04/27 08:18:32;;;;;;;3.27;1.90;;;18.80;40.30;;;;;;5073812;28;20829;-83
2023/04/27 08:20:57;;;;;;;3.70;2.00;;;18.40;40.50;;;;;;5072771;28;20057;-82
2023/04/27 08:23:27;;;;;;;5.83;2.30;;;18.00;40.90;;;;;;5073717;28;20462;-84
2023/04/27 08:25:53;;;;;;;6.23;2.20;;;17.80;42.00;;;;;;5073058;28;20048;-82
2023/04/27 08:28:18;;;;;;;5.57;2.43;;;17.40;42.70;;;;;;5072746;28;20075;-83
2023/04/27 08:30:44;;;;;;;5.80;2.00;;;17.10;43.50;;;;;;5073195;28;20056;-84
2023/04/27 08:33:10;;;;;;;6.20;2.33;;;16.90;43.30;;;;;;5073179;28;20052;-85
2023/04/27 08:35:36;;;;;;;4.33;2.10;;;16.80;43.10;;;;;;5072558;28;20049;-85
2023/04/27 08:38:01;;;;;;;4.53;2.10;;;16.60;43.20;;;;;;5073767;28;20106;-85
2023/04/27 08:40:28;;;;;;;5.30;2.40;;;16.40;43.60;;;;;;5071630;28;20055;-82
2023/04/27 08:42:57;;;;;;;4.47;2.07;;;16.30;43.60;;;;;;5073579;28;20080;-83
2023/04/27 08:45:24;;;;;;;4.77;2.33;;;16.10;43.70;;;;;;5073197;28;20045;-77
2023/04/27 08:47:50;;;;;;;4.70;2.37;;;16.00;44.00;;;;;;5073548;28;20051;-78
2023/04/27 08:50:16;;;;;;;4.97;2.07;;;15.90;43.80;;;;;;5073173;28;20055;-87
2023/04/27 08:52:47;;;;;;;4.40;2.37;;;15.80;44.10;;;;;;5073083;28;20500;-86
2023/04/27 08:55:13;;;;;;;5.63;2.60;;;15.70;44.60;;;;;;5072613;28;20075;-89
2023/04/27 08:57:39;;;;;;;6.10;3.30;;;15.60;44.90;;;;;;5069640;28;20381;-87
2023/04/27 09:00:14;;;;;;;8.27;2.70;;;15.40;45.20;;;;;;5072911;28;20048;-81
2023/04/27 09:02:47;;;;;;;7.50;2.70;;;15.10;45.60;;;;;;5069066;28;20063;-77
2023/04/27 09:05:17;;;;;;;5.83;2.50;;;15.00;46.10;;;;;;5072526;28;20048;-79
2023/04/27 09:07:58;;;;;;;4.53;2.20;;;15.00;46.20;;;;;;5072451;28;20488;-79
2023/04/27 09:10:24;;;;;;;6.23;2.37;;;15.00;46.80;;;;;;5071976;28;20115;-77
2023/04/27 09:12:58;;;;;;;6.30;2.87;;;14.90;46.30;;;;;;5072634;28;20090;-83
2023/04/27 09:15:23;;;;;;;6.20;2.87;;;14.80;46.40;;;;;;5072133;28;20044;-80
2023/04/27 09:17:55;;;;;;;5.27;3.07;;;14.70;46.50;;;;;;5072320;28;20037;-80
2023/04/27 09:20:21;;;;;;;9.70;2.97;;;14.60;47.40;;;;;;5071927;28;20060;-77
2023/04/27 09:22:54;;;;;;;6.27;2.53;;;14.60;47.10;;;;;;5069335;28;20459;-79
2023/04/27 09:25:31;;;;;;;6.83;3.00;;;14.60;47.00;;;;;;5071015;28;20044;-76
2023/04/27 09:27:57;;;;;;;7.60;3.70;;;14.50;47.10;;;;;;5070965;28;20072;-77
2023/04/27 09:30:24;;;;;;;8.70;4.83;;;14.50;47.40;;;;;;5071820;28;20040;-80
2023/04/27 09:32:57;;;;;;;9.90;5.53;;;14.40;47.10;;;;;;5072380;28;20105;-84
2023/04/27 09:35:25;;;;;;;14.13;6.30;;;14.30;47.50;;;;;;5071684;28;20468;-83
2023/04/27 09:37:52;;;;;;;15.20;6.80;;;14.30;47.80;;;;;;5072268;28;20036;-80
2023/04/27 09:40:28;;;;;;;16.53;8.70;;;14.30;48.00;;;;;;5072310;28;20095;-80
2023/04/27 09:43:02;;;;;;;15.33;7.63;;;14.30;48.40;;;;;;5072717;28;20056;-78
2023/04/27 09:45:28;;;;;;;14.57;7.37;;;14.30;48.50;;;;;;5072374;28;20513;-79
2023/04/27 09:47:54;;;;;;;16.07;7.40;;;14.20;48.40;;;;;;5071990;28;20103;-83
2023/04/27 09:50:20;;;;;;;15.37;7.37;;;14.20;48.90;;;;;;5072043;28;20473;-82
2023/04/27 09:52:46;;;;;;;12.27;6.63;;;14.20;49.20;;;;;;5071690;28;20427;-83
2023/04/27 09:55:28;;;;;;;14.63;6.63;;;14.20;49.50;;;;;;5071797;28;20340;-79
2023/04/27 09:58:12;;;;;;;11.07;5.50;;;14.10;49.40;;;;;;5069946;28;20488;-78
2023/04/27 10:01:01;;;;;;;9.97;4.80;;;14.10;49.50;;;;;;5072271;28;20051;-77
2023/04/27 10:03:42;;;;;;;9.40;3.27;;;14.10;49.50;;;;;;5072062;28;20336;-79
2023/04/27 10:06:27;;;;;;;6.77;2.87;;;14.10;49.50;;;;;;5072455;28;20279;-79
2023/04/27 10:08:55;;;;;;;7.13;3.17;;;14.10;49.30;;;;;;5072667;28;20463;-76
2023/04/27 10:11:32;;;;;;;4.97;2.33;;;14.10;49.30;;;;;;5072353;28;20503;-77
2023/04/27 10:14:09;;;;;;;6.50;2.40;;;14.10;49.40;;;;;;5072692;28;20271;-81
2023/04/27 10:16:48;;;;;;;8.47;2.70;;;14.00;49.40;;;;;;5072022;28;20302;-81
2023/04/27 10:19:14;;;;;;;8.80;3.10;;;14.10;49.50;;;;;;5072408;28;20440;-80
2023/04/27 10:22:04;;;;;;;6.73;2.73;;;14.10;49.80;;;;;;5070708;28;20294;-79
2023/04/27 10:24:36;;;;;;;6.03;2.57;;;14.20;49.80;;;;;;5072335;28;20059;-78
2023/04/27 10:27:08;;;;;;;7.30;2.70;;;14.20;50.00;;;;;;5072423;28;20637;-78
2023/04/27 10:29:41;;;;;;;6.00;3.33;;;14.30;50.20;;;;;;5071914;28;20282;-77
2023/04/27 10:32:20;;;;;;;6.20;3.30;;;14.30;50.50;;;;;;5071453;28;20638;-77
2023/04/27 10:34:47;;;;;;;5.83;2.73;;;14.30;50.50;;;;;;5072082;28;20125;-79
2023/04/27 10:37:14;;;;;;;9.17;3.13;;;14.40;50.70;;;;;;5071114;28;20285;-77
2023/04/27 10:39:43;;;;;;;10.00;3.13;;;14.50;50.70;;;;;;5071958;28;20289;-77
2023/04/27 10:42:10;;;;;;;9.47;3.20;;;14.40;49.80;;;;;;5072094;28;20369;-77
2023/04/27 10:44:37;;;;;;;7.83;3.17;;;14.40;50.70;;;;;;5071958;28;20387;-77
2023/04/27 10:47:15;;;;;;;7.00;3.87;;;14.50;50.80;;;;;;5072209;28;20275;-75
2023/04/27 10:49:40;;;;;;;6.77;3.50;;;14.50;50.50;;;;;;5071804;28;20286;-78
2023/04/27 10:52:06;;;;;;;8.27;3.70;;;14.50;50.60;;;;;;5072390;28;20279;-76
2023/04/27 10:54:34;;;;;;;5.63;3.23;;;14.60;50.80;;;;;;5075495;28;20170;-77
2023/04/27 10:57:06;;;;;;;7.50;3.30;;;14.60;50.40;;;;;;5057861;28;20056;-76
2023/04/27 10:59:33;;;;;;;7.33;3.43;;;14.70;50.50;;;;;;5074400;28;20145;-76
2023/04/27 11:01:59;;;;;;;7.03;3.57;;;14.70;50.50;;;;;;5075776;28;20285;-77
2023/04/27 11:04:39;;;;;;;10.33;3.73;;;14.60;50.10;;;;;;5075739;28;20283;-79
2023/04/27 11:07:07;;;;;;;6.17;3.20;;;14.80;49.90;;;;;;5075531;28;20488;-78
2023/04/27 11:09:35;;;;;;;6.23;3.93;;;14.80;50.10;;;;;;5075393;28;20119;-77
2023/04/27 11:12:01;;;;;;;7.10;3.03;;;14.90;50.20;;;;;;5075559;28;20048;-77
2023/04/27 11:14:28;;;;;;;7.90;3.20;;;15.00;50.20;;;;;;5074698;28;20404;-74
2023/04/27 11:16:54;;;;;;;6.93;3.63;;;14.90;49.90;;;;;;5075134;28;20059;-74
2023/04/27 11:19:19;;;;;;;6.90;3.73;;;14.80;49.40;;;;;;5074184;28;20048;-77
2023/04/27 11:21:45;;;;;;;6.63;3.57;;;14.70;49.00;;;;;;5075185;28;20061;-72
2023/04/27 11:24:11;;;;;;;9.30;3.83;;;14.80;49.60;;;;;;5075360;28;20211;-74
2023/04/27 11:26:37;;;;;;;6.40;3.60;;;14.80;49.40;;;;;;5075110;28;20080;-78
2023/04/27 11:29:08;;;;;;;10.10;3.93;;;14.80;49.50;;;;;;5075520;28;20430;-79
2023/04/27 11:31:46;;;;;;;7.10;3.63;;;14.80;49.40;;;;;;5075310;28;20045;-77
2023/04/27 11:34:16;;;;;;;8.23;3.97;;;14.90;49.60;;;;;;5075180;28;20283;-76
2023/04/27 11:36:41;;;;;;;7.20;3.47;;;15.00;49.60;;;;;;5074823;28;20045;-78
2023/04/27 11:39:08;;;;;;;11.50;3.87;;;14.80;49.40;;;;;;5074223;28;20287;-78
2023/04/27 11:41:38;;;;;;;5.43;3.03;;;14.80;49.70;;;;;;5074082;28;20052;-75
2023/04/27 11:44:08;;;;;;;6.67;3.60;;;14.90;50.10;;;;;;5075095;28;20052;-74
2023/04/27 11:46:35;;;;;;;6.80;3.83;;;14.80;49.90;;;;;;5074917;28;20267;-75
2023/04/27 11:49:07;;;;;;;8.07;4.20;;;14.70;50.30;;;;;;5074706;28;20727;-72
2023/04/27 11:51:33;;;;;;;6.27;3.90;;;14.60;50.10;;;;;;5074085;28;20285;-73
2023/04/27 11:54:05;;;;;;;8.00;3.37;;;14.50;50.10;;;;;;5073446;28;20078;-74
2023/04/27 11:56:39;;;;;;;7.03;3.70;;;14.50;50.10;;;;;;5074638;28;20295;-73
2023/04/27 11:59:16;;;;;;;8.13;3.20;;;14.40;50.20;;;;;;5074626;28;20301;-79
2023/04/27 12:01:42;;;;;;;10.93;3.50;;;14.40;50.30;;;;;;5074669;28;20045;-74
2023/04/27 12:04:07;;;;;;;6.27;3.10;;;14.50;51.00;;;;;;5073362;28;20291;-75
2023/04/27 12:06:33;;;;;;;5.47;2.97;;;14.50;50.80;;;;;;5074604;28;20040;-74
2023/04/27 12:08:59;;;;;;;6.23;3.57;;;14.60;51.00;;;;;;5074140;28;20048;-73
2023/04/27 12:11:28;;;;;;;8.27;3.40;;;14.60;51.10;;;;;;5074450;28;20435;-73
2023/04/27 12:13:55;;;;;;;5.47;3.30;;;14.60;51.30;;;;;;5074320;28;20700;-77
2023/04/27 12:16:22;;;;;;;7.73;3.13;;;14.70;51.30;;;;;;5073178;28;20307;-77
2023/04/27 12:18:51;;;;;;;6.20;3.07;;;14.70;50.90;;;;;;5074282;28;20351;-82
2023/04/27 12:21:17;;;;;;;8.20;3.13;;;14.70;51.20;;;;;;5074378;28;20286;-79
2023/04/27 12:23:43;;;;;;;8.67;3.23;;;14.80;51.30;;;;;;5074013;28;20286;-83
2023/04/27 12:26:11;;;;;;;9.93;3.73;;;14.80;51.50;;;;;;5074196;28;20271;-79
2023/04/27 12:28:37;;;;;;;6.80;3.43;;;14.70;51.00;;;;;;5072960;28;20472;-80
2023/04/27 12:31:03;;;;;;;7.47;3.30;;;14.70;51.30;;;;;;5072832;28;20389;-78
2023/04/27 12:33:29;;;;;;;7.30;3.97;;;14.60;50.80;;;;;;5074187;28;20123;-80
2023/04/27 12:35:55;;;;;;;10.10;3.57;;;14.60;50.90;;;;;;5072633;28;20412;-77
2023/04/27 12:38:21;;;;;;;8.00;4.00;;;14.60;51.30;;;;;;5073984;28;20808;-78
2023/04/27 12:40:48;;;;;;;11.60;3.90;;;14.60;49.60;;;;;;5073686;28;20059;-79
2023/04/27 12:43:14;;;;;;;7.97;4.10;;;14.50;49.50;;;;;;5073865;28;20056;-80
2023/04/27 12:45:40;;;;;;;8.13;4.50;;;14.50;50.00;;;;;;5073081;28;20297;-82
2023/04/27 12:48:06;;;;;;;9.13;4.30;;;14.70;50.70;;;;;;5072682;28;20366;-81